Woodstock, GA

34° 08' 01"N, 84° 28' 00"W, Elevation 900 ft.
Eastern Time

Hourly observations for the last 72 hours

Date Time Temperature (F) Humi-
dity

(%)
Wind
(mph)
Pressure Rain (in) Sun
(W/m2)
ET
(in)
Air Dew 6 Hour 1 Hr 3 Hr 6 Hr Day
Alt
(in)
Sea
Level

(mb)
Max Min
17 19:00 84.8 76.8 77 Calm 29.93 1013.7 0.00 42 0.145
17 18:00 86.5 76.4 72 N 0 G 3 29.93 1013.5 0.00 44 0.143
17 17:00 87.5 76.1 69 ESE 0 G 2 29.94 1013.8 0.00 83 0.137
17 16:00 89.3 76.5 66 SW 0 G 3 29.95 1014.4 0.00 970 0.128
17 15:00 87.7 77.1 71 S 1 G 6 29.98 1015.1 0.00 257 0.103
17 14:00 87.7 77.1 87.7 72.3 71 ENE 0 G 3 30.00 1016.0 0.00 1153 0.093
17 13:00 86.8 78.3 76 N 1 G 2 30.01 1016.5 0.00 1165 0.069
17 12:00 86.6 77.3 74 NNE 0 G 3 30.03 1016.9 0.00 1085 0.050
17 11:00 84.7 77.5 79 N 0 G 1 30.03 1017.1 0.00 830 0.027
17 10:00 80.7 76.5 87 SW 0 G 1 30.04 1017.3 0.00 598 0.010
17 09:00 75.1 73.9 96 Calm 30.04 1017.3 0.00 102 0.001
17 08:00 72.3 71.1 74.2 71.8 96 Calm 30.03 1016.9 0.00 33 0.000
17 07:00 71.9 70.7 96 Calm 30.01 1016.5 0.00 0 0.000
17 06:00 72.1 70.6 95 Calm 29.99 1015.6 0.00 0 0.000
17 05:00 72.6 71.1 95 Calm 29.98 1015.1 0.00 0 0.000
17 04:00 73.2 71.7 95 Calm 29.97 1014.8 0.00 0 0.000
17 03:00 73.6 72.1 95 Calm 29.97 1015.0 0.00 0 0.000
17 02:00 74.2 72.7 82.2 74.2 95 Calm 29.99 1015.7 0.00 0 0.000
17 01:00 74.8 73.0 94 Calm 30.01 1016.2 0.00 0 0.000
17 00:00 75.5 73.7 94 Calm 30.02 1016.6 0.00 0 0.000
16 23:00 76.4 74.2 93 Calm 30.03 1016.9 0.00 0 0.150
16 22:00 77.4 74.6 91 Calm 30.00 1016.0 0.00 0 0.150
16 21:00 79.6 75.7 88 Calm 29.98 1015.1 0.00 0 0.150
16 20:00 82.2 77.2 89.3 82.2 85 Calm 29.96 1014.6 0.00 11 0.150
16 19:00 84.9 78.8 82 NNW 0 G 1 29.95 1014.3 0.00 32 0.149
16 18:00 86.9 78.8 77 NNE 0 G 2 29.94 1013.9 0.00 49 0.147
16 17:00 88.1 77.1 70 N 0 G 2 29.95 1014.2 0.00 79 0.141
16 16:00 89.3 76.5 66 N 1 G 6 29.97 1014.9 0.00 900 0.133
16 15:00 88.7 78.1 71 N 0 G 2 29.99 1015.5 0.00 192 0.113
16 14:00 88.4 78.2 88.4 72.3 72 ENE 0 G 2 30.01 1016.3 0.00 1129 0.099
16 13:00 85.8 78.5 79 N 1 G 4 30.03 1016.9 0.00 1160 0.072
16 12:00 84.8 78.3 81 W 0 G 2 30.03 1017.0 0.00 1097 0.049
16 11:00 81.7 76.4 84 NNE 0 G 2 30.04 1017.2 0.00 805 0.027
16 10:00 77.4 75.5 94 WSW 0 G 2 30.05 1017.5 0.00 596 0.010
16 09:00 74.0 73.1 97 SW 0 G 1 30.04 1017.2 0.00 153 0.002
16 08:00 72.3 71.1 73.0 71.7 96 Calm 30.02 1016.8 0.00 39 0.000
16 07:00 71.8 70.6 96 Calm 30.01 1016.3 0.00 0 0.000
16 06:00 72.0 70.8 96 Calm 29.98 1015.2 0.00 0 0.000
16 05:00 72.8 71.6 96 Calm 29.96 1014.6 0.00 0 0.000
16 04:00 72.3 71.1 96 Calm 29.96 1014.6 0.00 0 0.000
16 03:00 71.8 70.6 96 Calm 29.95 1014.3 0.00 0 0.000
16 02:00 72.3 71.1 80.7 72.2 96 Calm 29.94 1014.1 0.11 0.00 0 0.000
16 01:00 72.7 71.2 95 Calm 29.94 1013.9 0.00 0 0.000
16 00:00 73.2 72.0 96 ENE 0 G 1 29.94 1013.9 0.12 0 0.000
15 23:00 73.4 71.9 95 Calm 29.95 1014.2 0.11 0.12 0 0.124
15 22:00 73.9 72.4 95 ENE 0 G 1 29.94 1013.8 0.12 0 0.124
15 21:00 74.6 72.4 93 Calm 29.91 1013.0 0.11 0.12 0 0.124
15 20:00 80.7 74.0 87.7 80.7 80 NW 0 G 11 29.92 1013.4 0.01 0.01 0.01 0.01 9 0.124
15 19:00 84.1 77.3 80 NE 0 G 2 29.89 1012.3 0.00 30 0.123
15 18:00 86.1 78.1 77 N 0 G 2 29.86 1011.3 0.00 77 0.121
15 17:00 86.1 76.9 74 SSW 0 G 2 29.87 1011.6 0.00 163 0.115
15 16:00 86.0 76.8 74 NNE 0 G 3 29.88 1011.9 0.00 306 0.107
15 15:00 87.0 76.0 70 SW 0 G 2 29.90 1012.4 0.00 262 0.092
15 14:00 86.7 76.2 87.2 72.6 71 E 0 G 2 29.91 1012.9 0.00 1099 0.076
15 13:00 84.5 76.5 77 NNW 0 G 2 29.93 1013.6 0.00 1239 0.049
15 12:00 83.9 77.1 80 N 0 G 5 29.94 1014.0 0.00 1190 0.033
15 11:00 80.6 75.7 85 NW 0 G 2 29.93 1013.7 0.00 339 0.018
15 10:00 78.5 75.3 90 Calm 29.92 1013.2 0.00 613 0.009
15 09:00 74.2 73.0 96 Calm 29.92 1013.1 0.00 100 0.002
15 08:00 72.6 71.4 72.6 71.6 96 Calm 29.92 1013.1 0.00 30 0.000
15 07:00 72.3 71.1 96 Calm 29.90 1012.5 0.00 0 0.000
15 06:00 71.9 70.4 95 Calm 29.89 1012.2 0.00 0 0.000
15 05:00 71.7 70.2 95 Calm 29.88 1011.9 0.00 0 0.000
15 04:00 71.8 70.3 95 Calm 29.87 1011.5 0.00 0 0.000
15 03:00 72.1 70.6 95 Calm 29.86 1011.3 0.00 0 0.000
15 02:00 72.5 71.0 79.2 72.5 95 Calm 29.86 1011.3 0.00 0 0.000
15 01:00 73.2 71.4 94 Calm 29.87 1011.5 0.00 0 0.000
15 00:00 74.0 71.8 93 Calm 29.87 1011.6 0.00 0 0.000
14 23:00 74.9 72.4 92 Calm 29.88 1012.0 0.00 0 0.139
14 22:00 76.3 73.2 90 Calm 29.88 1011.9 0.00 0 0.139
14 21:00 77.8 73.6 87 Calm 29.85 1010.9 0.00 0 0.139
14 20:00 79.1 74.2 89.8 79.1 85 Calm 29.85 1010.7 0.00 11 0.139

Data generated by WxSolution Version 1.8.7.4, Build 2015.02.27.